Greer, SC

11:12 AM EDT on August 28, 2016 (GMT -0400)
Greenville-Spartanburg International | | Change Station

Elev 971 ft 34.88 °N, 82.22 °W | Updated 19 minutes ago

Mostly Cloudy
Mostly Cloudy
82 °F
Feels Like 87 °F
N
10
Wind Variable Wind from NE

Today
High -- | Low -- °F
--% Chance of Precip.
Yesterday
High -- | Low -- °F
Precip. -- in
Pressure 30.17 in
Visibility 10.0 miles
Clouds Mostly Cloudy 1500 ft
Mostly Cloudy 2300 ft
Heat Index 87 °F
Dew Point 72 °F
Humidity 71%
Rainfall 0.00 in
Snow Depth Not available.
6:59 AM 8:00 PM
Waning Crescent, 15% visible
METAR KGSP 281453Z 04009KT 10SM BKN015 BKN023 28/22 A3021 RMK AO2 SLP217 T02780222 50007
Pressure 30.17 in
Visibility 10.0 miles
Clouds Mostly Cloudy 1500 ft
Mostly Cloudy 2300 ft
Heat Index 87 °F
Dew Point 72 °F
Humidity 71%
Rainfall 0.00 in
Snow Depth Not available.
6:59 AM 8:00 PM
Waning Crescent, 15% visible
METAR KGSP 281453Z 04009KT 10SM BKN015 BKN023 28/22 A3021 RMK AO2 SLP217 T02780222 50007

10-Day Weather Forecast

Almanac

Astronomy

Aug. 28, 2016 Rise Set
Actual Time
Civil Twilight
Nautical Twilight
Astronomical Twilight
Moon
Length of Visible Light
Length of Day
Tomorrow will be .
, % of the Moon is Illuminated

Today's Extremes

State Highs State Lows

Community

WunderPhotos

Upload Photos

1,935,586 photos uploaded!

WunderBlog® & News

Nearby

Air Quality

  Air Quality AQ Index Pollutant
Not available.

Snow Depth

Station Depth Elevation

Earthquake Activity

City Distance Mag. Time & Date
Minimum magnitude displayed is 2.5.

Coastal Water Temperatures

Place Temperature

Stations

Nearby Weather Stations

Station Location Temp. Windchill Dew Point Humidity Wind Precip. Elev Updated Type
                   

Watches & Warnings

There are currently no watches in effect.